createdAt,value
2017-01-09T00:00:39.615Z,0
2017-01-09T00:01:39.638Z,0
2017-01-09T00:02:39.643Z,0
2017-01-09T00:03:39.655Z,0
2017-01-09T00:04:39.664Z,0
2017-01-09T00:05:39.673Z,0
2017-01-09T00:06:39.691Z,0
2017-01-09T00:07:40.095Z,0
2017-01-09T00:08:39.701Z,0
2017-01-09T00:09:39.709Z,0
2017-01-09T00:10:39.732Z,0
2017-01-09T00:11:39.743Z,0
2017-01-09T00:12:39.752Z,0
2017-01-09T00:13:39.767Z,0
2017-01-09T00:14:39.769Z,0
2017-01-09T00:15:39.789Z,0
2017-01-09T00:16:39.789Z,0
2017-01-09T00:17:39.805Z,0
2017-01-09T00:18:39.813Z,0
2017-01-09T00:19:39.821Z,0
2017-01-09T00:20:39.842Z,0
2017-01-09T00:21:40.238Z,0
2017-01-09T00:22:39.854Z,0
2017-01-09T00:23:39.870Z,0
2017-01-09T00:24:39.902Z,0
2017-01-09T00:25:39.898Z,0
2017-01-09T00:26:39.897Z,0
2017-01-09T00:27:39.914Z,0
2017-01-09T00:28:39.920Z,0
2017-01-09T00:29:39.931Z,0
2017-01-09T00:30:39.941Z,0
2017-01-09T00:31:39.952Z,0
2017-01-09T00:32:39.959Z,0
2017-01-09T00:33:39.976Z,0
2017-01-09T00:34:39.982Z,0
2017-01-09T00:35:39.995Z,0
2017-01-09T00:36:40.005Z,0
2017-01-09T00:37:40.015Z,0
2017-01-09T00:38:40.029Z,0
2017-01-09T00:39:40.044Z,0
2017-01-09T00:40:40.044Z,0
2017-01-09T00:41:40.060Z,0
2017-01-09T00:42:40.075Z,0
2017-01-09T00:43:40.075Z,0
2017-01-09T00:44:40.088Z,0
2017-01-09T00:45:40.105Z,0
2017-01-09T00:46:40.121Z,0
2017-01-09T00:47:40.122Z,0
2017-01-09T00:48:40.133Z,0
2017-01-09T00:49:40.148Z,0
2017-01-09T00:50:40.162Z,0
2017-01-09T00:51:40.169Z,0
2017-01-09T00:52:40.172Z,0
2017-01-09T00:53:40.194Z,0
2017-01-09T00:54:40.202Z,0
2017-01-09T00:55:40.209Z,0
2017-01-09T00:56:40.224Z,0
2017-01-09T00:57:40.228Z,0
2017-01-09T00:58:40.244Z,0
2017-01-09T00:59:40.260Z,0
2017-01-09T01:00:40.263Z,0
2017-01-09T01:01:40.272Z,0
2017-01-09T01:02:40.686Z,0
2017-01-09T01:03:40.298Z,0
2017-01-09T01:04:40.305Z,0
2017-01-09T01:05:40.316Z,0
2017-01-09T01:06:40.353Z,0
2017-01-09T01:07:40.332Z,0
2017-01-09T01:08:40.350Z,0
2017-01-09T01:09:40.359Z,0
2017-01-09T01:10:40.372Z,0
2017-01-09T01:11:40.385Z,0
2017-01-09T01:12:40.397Z,0
2017-01-09T01:13:40.397Z,0
2017-01-09T01:14:40.413Z,0
2017-01-09T01:15:40.419Z,0
2017-01-09T01:16:40.436Z,0
2017-01-09T01:17:40.444Z,0
2017-01-09T01:18:40.455Z,0
2017-01-09T01:19:40.466Z,0
2017-01-09T01:20:40.506Z,0
2017-01-09T01:21:40.488Z,0
2017-01-09T01:22:40.495Z,0
2017-01-09T01:23:40.504Z,0
2017-01-09T01:24:40.518Z,0
2017-01-09T01:25:40.530Z,0
2017-01-09T01:26:40.946Z,0
2017-01-09T01:27:40.550Z,0
2017-01-09T01:28:40.589Z,0
2017-01-09T01:29:40.576Z,0
2017-01-09T01:30:40.591Z,0
2017-01-09T01:31:40.627Z,0
2017-01-09T01:32:40.631Z,0
2017-01-09T01:33:40.616Z,0
2017-01-09T01:34:40.628Z,0
2017-01-09T01:35:40.639Z,0
2017-01-09T01:36:40.651Z,0
2017-01-09T01:37:40.660Z,0
2017-01-09T01:38:40.669Z,0
2017-01-09T01:39:40.682Z,0
2017-01-09T01:40:40.689Z,0
2017-01-09T01:41:40.710Z,0
2017-01-09T01:42:40.711Z,0
2017-01-09T01:43:40.723Z,0
2017-01-09T01:44:40.737Z,0
2017-01-09T01:45:40.746Z,0
2017-01-09T01:46:40.751Z,0
2017-01-09T01:47:40.765Z,0
2017-01-09T01:48:40.776Z,0
2017-01-09T01:49:40.784Z,0
2017-01-09T01:50:40.797Z,0
2017-01-09T01:51:40.807Z,0
2017-01-09T01:52:40.818Z,0
2017-01-09T01:53:40.827Z,0
2017-01-09T01:54:40.838Z,0
2017-01-09T01:55:40.848Z,0
2017-01-09T01:56:40.861Z,0
2017-01-09T01:57:40.871Z,0
2017-01-09T01:58:40.879Z,0
2017-01-09T01:59:40.893Z,0
2017-01-09T02:00:40.904Z,0
2017-01-09T02:01:40.920Z,0
2017-01-09T02:02:40.922Z,0
2017-01-09T02:03:40.933Z,0
2017-01-09T02:04:40.953Z,0
2017-01-09T02:05:41.433Z,0
2017-01-09T02:06:40.972Z,0
2017-01-09T02:07:40.976Z,0
2017-01-09T02:08:40.991Z,0
2017-01-09T02:09:40.996Z,0
2017-01-09T02:10:41.013Z,0
2017-01-09T02:11:41.051Z,0
2017-01-09T02:12:41.033Z,0
2017-01-09T02:13:41.210Z,0
2017-01-09T02:14:41.056Z,0
2017-01-09T02:15:41.063Z,0
2017-01-09T02:16:41.103Z,0
2017-01-09T02:17:41.097Z,0
2017-01-09T02:18:41.099Z,0
2017-01-09T02:19:41.111Z,0
2017-01-09T02:20:41.114Z,0
2017-01-09T02:21:41.127Z,0
2017-01-09T02:22:41.136Z,0
2017-01-09T02:23:41.149Z,0
2017-01-09T02:24:41.168Z,0
2017-01-09T02:25:41.169Z,0
2017-01-09T02:26:41.185Z,0
2017-01-09T02:27:41.190Z,0
2017-01-09T02:28:41.211Z,0
2017-01-09T02:29:41.218Z,0
2017-01-09T02:30:41.224Z,0
2017-01-09T02:31:41.238Z,0
2017-01-09T02:32:41.246Z,0
2017-01-09T02:33:41.253Z,0
2017-01-09T02:34:41.262Z,0
2017-01-09T02:35:41.276Z,0
2017-01-09T02:36:41.294Z,0
2017-01-09T02:37:41.298Z,0
2017-01-09T02:38:41.308Z,0
2017-01-09T02:39:41.322Z,0
2017-01-09T02:40:41.326Z,0
2017-01-09T02:41:41.348Z,0
2017-01-09T02:42:41.351Z,0
2017-01-09T02:43:41.363Z,0
2017-01-09T02:44:41.373Z,0
2017-01-09T02:45:41.386Z,0
2017-01-09T02:46:41.392Z,0
2017-01-09T02:47:41.405Z,0
2017-01-09T02:48:41.416Z,0
2017-01-09T02:49:41.423Z,0
2017-01-09T02:50:41.440Z,0
2017-01-09T02:51:41.445Z,0
2017-01-09T02:52:41.460Z,0
2017-01-09T02:53:41.470Z,0
2017-01-09T02:54:41.480Z,0
2017-01-09T02:55:41.491Z,0
2017-01-09T02:56:41.498Z,0
2017-01-09T02:57:41.509Z,0
2017-01-09T02:58:41.526Z,0
2017-01-09T02:59:41.562Z,0
2017-01-09T03:00:41.553Z,0
2017-01-09T03:01:41.556Z,0
2017-01-09T03:02:41.562Z,0
2017-01-09T03:03:41.574Z,0
2017-01-09T03:04:41.584Z,0
2017-01-09T03:05:41.599Z,0
2017-01-09T03:06:41.617Z,0
2017-01-09T03:07:41.618Z,0
2017-01-09T03:08:41.630Z,0
2017-01-09T03:09:41.638Z,0
2017-01-09T03:10:41.651Z,0
2017-01-09T03:11:41.690Z,0
2017-01-09T03:12:41.675Z,0
2017-01-09T03:13:41.686Z,0
2017-01-09T03:14:41.692Z,0
2017-01-09T03:15:41.701Z,0
2017-01-09T03:16:41.713Z,0
2017-01-09T03:17:41.726Z,0
2017-01-09T03:18:41.732Z,0
2017-01-09T03:19:41.750Z,0
2017-01-09T03:20:41.765Z,0
2017-01-09T03:21:41.767Z,0
2017-01-09T03:22:41.777Z,0
2017-01-09T03:23:41.792Z,0
2017-01-09T03:24:41.813Z,0
2017-01-09T03:25:41.806Z,0
2017-01-09T03:26:41.816Z,0
2017-01-09T03:27:41.833Z,0
2017-01-09T03:28:41.851Z,0
2017-01-09T03:29:41.856Z,0
2017-01-09T03:30:41.868Z,0
2017-01-09T03:31:41.874Z,0
2017-01-09T03:32:41.899Z,0
2017-01-09T03:33:41.899Z,0
2017-01-09T03:34:41.904Z,0
2017-01-09T03:35:41.922Z,0
2017-01-09T03:36:41.925Z,0
2017-01-09T03:37:41.937Z,0
2017-01-09T03:38:41.949Z,0
2017-01-09T03:39:41.956Z,0
2017-01-09T03:40:41.964Z,0
2017-01-09T03:41:41.986Z,0
2017-01-09T03:42:41.994Z,0
2017-01-09T03:43:42.005Z,0
2017-01-09T03:44:42.011Z,0
2017-01-09T03:45:42.029Z,0
2017-01-09T03:46:42.034Z,0
2017-01-09T03:47:42.051Z,0
2017-01-09T03:48:42.057Z,0
2017-01-09T03:49:42.068Z,0
2017-01-09T03:50:42.081Z,0
2017-01-09T03:51:42.087Z,0
2017-01-09T03:52:42.102Z,0
2017-01-09T03:53:42.106Z,0
2017-01-09T03:54:42.121Z,0
2017-01-09T03:55:42.163Z,0
2017-01-09T03:56:42.146Z,0
2017-01-09T03:57:42.151Z,0
2017-01-09T03:58:42.166Z,0
2017-01-09T03:59:42.179Z,0
2017-01-09T04:00:42.188Z,0
2017-01-09T04:01:42.196Z,0
2017-01-09T04:02:42.210Z,0
2017-01-09T04:03:42.218Z,0
2017-01-09T04:04:42.227Z,0
2017-01-09T04:05:42.233Z,0
2017-01-09T04:06:42.246Z,0
2017-01-09T04:07:42.262Z,0
2017-01-09T04:08:42.270Z,0
2017-01-09T04:09:42.280Z,0
2017-01-09T04:10:42.289Z,0
2017-01-09T04:11:42.306Z,0
2017-01-09T04:12:42.311Z,0
2017-01-09T04:13:42.322Z,0
2017-01-09T04:14:42.334Z,0
2017-01-09T04:15:42.341Z,0
2017-01-09T04:16:42.383Z,0
2017-01-09T04:17:42.363Z,0
2017-01-09T04:18:42.381Z,0
2017-01-09T04:19:42.383Z,0
2017-01-09T04:20:42.396Z,0
2017-01-09T04:21:42.405Z,0
2017-01-09T04:22:42.422Z,0
2017-01-09T04:23:42.431Z,0
2017-01-09T04:24:42.443Z,0
2017-01-09T04:25:42.448Z,0
2017-01-09T04:26:42.463Z,0
2017-01-09T04:27:42.477Z,0
2017-01-09T04:28:42.484Z,0
2017-01-09T04:29:42.499Z,0
2017-01-09T04:30:42.508Z,0
2017-01-09T04:31:42.515Z,0
2017-01-09T04:32:42.552Z,0
2017-01-09T04:33:42.540Z,0
2017-01-09T04:34:42.554Z,0
2017-01-09T04:35:42.559Z,0
2017-01-09T04:36:42.576Z,0
2017-01-09T04:37:42.582Z,0
2017-01-09T04:38:42.599Z,0
2017-01-09T04:39:42.603Z,0
2017-01-09T04:40:42.615Z,0
2017-01-09T04:41:42.627Z,0
2017-01-09T04:42:42.631Z,0
2017-01-09T04:43:42.642Z,0
2017-01-09T04:44:42.662Z,0
2017-01-09T04:45:42.664Z,0
2017-01-09T04:46:42.681Z,0
2017-01-09T04:47:42.691Z,0
2017-01-09T04:48:42.703Z,0
2017-01-09T04:49:42.714Z,0
2017-01-09T04:50:42.718Z,0
2017-01-09T04:51:42.727Z,0
2017-01-09T04:52:42.742Z,0
2017-01-09T04:53:42.748Z,0
2017-01-09T04:54:42.767Z,0
2017-01-09T04:55:42.772Z,0
2017-01-09T04:56:42.784Z,0
2017-01-09T04:57:42.792Z,0
2017-01-09T04:58:42.810Z,0
2017-01-09T04:59:42.813Z,0
2017-01-09T05:00:42.824Z,0
2017-01-09T05:01:42.837Z,0
2017-01-09T05:02:42.850Z,0
2017-01-09T05:03:42.855Z,0
2017-01-09T05:04:42.880Z,0
2017-01-09T05:05:42.883Z,0
2017-01-09T05:06:42.891Z,0
2017-01-09T05:07:42.900Z,0
2017-01-09T05:08:42.913Z,0
2017-01-09T05:09:42.923Z,0
2017-01-09T05:10:42.937Z,0
2017-01-09T05:11:42.943Z,0
2017-01-09T05:12:42.955Z,0
2017-01-09T05:13:42.969Z,0
2017-01-09T05:14:42.978Z,0
2017-01-09T05:15:42.997Z,0
2017-01-09T05:16:43.002Z,0
2017-01-09T05:17:43.006Z,0
2017-01-09T05:18:43.025Z,0
2017-01-09T05:19:43.033Z,0
2017-01-09T05:20:43.049Z,0
2017-01-09T05:21:43.056Z,0
2017-01-09T05:22:43.059Z,0
2017-01-09T05:23:43.071Z,0
2017-01-09T05:24:43.083Z,0
2017-01-09T05:25:43.100Z,0
2017-01-09T05:26:43.116Z,0
2017-01-09T05:27:43.117Z,0
2017-01-09T05:28:43.130Z,0
2017-01-09T05:29:43.138Z,0
2017-01-09T05:30:43.159Z,0
2017-01-09T05:31:43.158Z,0
2017-01-09T05:32:43.182Z,0
2017-01-09T05:33:43.185Z,0
2017-01-09T05:34:43.200Z,0
2017-01-09T05:35:43.207Z,0
2017-01-09T05:36:43.213Z,0
2017-01-09T05:37:43.232Z,0
2017-01-09T05:38:43.238Z,0
2017-01-09T05:39:43.245Z,0
2017-01-09T05:40:43.260Z,0
2017-01-09T05:41:43.269Z,0
2017-01-09T05:42:43.295Z,0
2017-01-09T05:43:43.293Z,0
2017-01-09T05:44:43.298Z,0
2017-01-09T05:45:43.315Z,0
2017-01-09T05:46:43.321Z,0
2017-01-09T05:47:43.335Z,0
2017-01-09T05:48:43.343Z,0
2017-01-09T05:49:43.353Z,0
2017-01-09T05:50:43.357Z,0
2017-01-09T05:51:43.377Z,0
2017-01-09T05:52:43.386Z,0
2017-01-09T05:53:43.401Z,0
2017-01-09T05:54:43.408Z,0
2017-01-09T05:55:43.418Z,0
2017-01-09T05:56:43.427Z,0
2017-01-09T05:57:43.437Z,0
2017-01-09T05:58:43.453Z,0
2017-01-09T05:59:43.460Z,0
2017-01-09T06:00:43.468Z,0
2017-01-09T06:01:43.482Z,0
2017-01-09T06:02:43.487Z,0
2017-01-09T06:03:43.502Z,0
2017-01-09T06:04:43.512Z,0
2017-01-09T06:05:43.523Z,0
2017-01-09T06:06:43.535Z,0
2017-01-09T06:07:43.547Z,0
2017-01-09T06:08:43.556Z,0
2017-01-09T06:09:43.562Z,0
2017-01-09T06:10:43.574Z,0
2017-01-09T06:11:43.590Z,0
2017-01-09T06:12:43.595Z,0
2017-01-09T06:13:43.618Z,0
2017-01-09T06:14:43.614Z,0
2017-01-09T06:15:43.637Z,0
2017-01-09T06:16:43.644Z,0
2017-01-09T06:17:43.653Z,0
2017-01-09T06:18:43.664Z,0
2017-01-09T06:19:43.677Z,0
2017-01-09T06:20:43.685Z,0
2017-01-09T06:21:43.696Z,0
2017-01-09T06:22:43.710Z,0
2017-01-09T06:23:43.726Z,0
2017-01-09T06:24:43.728Z,0
2017-01-09T06:25:43.738Z,0
2017-01-09T06:26:43.749Z,0
2017-01-09T06:27:43.756Z,0
2017-01-09T06:28:43.767Z,0
2017-01-09T06:29:43.775Z,0
2017-01-09T06:30:43.792Z,0
2017-01-09T06:31:43.801Z,0
2017-01-09T06:32:43.811Z,0
2017-01-09T06:33:43.822Z,0
2017-01-09T06:34:43.835Z,0
2017-01-09T06:35:43.851Z,0
2017-01-09T06:36:43.857Z,0
2017-01-09T06:37:43.873Z,0
2017-01-09T06:38:43.881Z,0
2017-01-09T06:39:43.890Z,0
2017-01-09T06:40:44.288Z,0
2017-01-09T06:41:43.912Z,0
2017-01-09T06:42:43.922Z,0
2017-01-09T06:43:43.930Z,0
2017-01-09T06:44:43.942Z,0
2017-01-09T06:45:43.951Z,0
2017-01-09T06:46:43.964Z,0
2017-01-09T06:47:43.980Z,0
2017-01-09T06:48:43.986Z,0
2017-01-09T06:49:43.999Z,0
2017-01-09T06:50:44.000Z,0
2017-01-09T06:51:44.020Z,0
2017-01-09T06:52:44.023Z,0
2017-01-09T06:53:44.038Z,0
2017-01-09T06:54:44.049Z,0
2017-01-09T06:55:44.060Z,0
2017-01-09T06:56:44.076Z,4
2017-01-09T06:57:44.079Z,4
2017-01-09T06:58:44.093Z,4
2017-01-09T06:59:44.104Z,4
2017-01-09T07:00:44.111Z,4
2017-01-09T07:01:44.122Z,0
2017-01-09T07:02:44.134Z,4
2017-01-09T07:03:44.143Z,4
2017-01-09T07:04:44.156Z,4
2017-01-09T07:05:44.169Z,4
2017-01-09T07:06:44.178Z,4
2017-01-09T07:07:44.217Z,4
2017-01-09T07:08:44.199Z,4
2017-01-09T07:09:44.204Z,4
2017-01-09T07:10:44.223Z,4
2017-01-09T07:11:44.235Z,4
2017-01-09T07:12:44.245Z,8
2017-01-09T07:13:44.257Z,8
2017-01-09T07:14:44.269Z,8
2017-01-09T07:15:44.274Z,12
2017-01-09T07:16:44.284Z,8
2017-01-09T07:17:44.295Z,12
2017-01-09T07:18:44.306Z,12
2017-01-09T07:19:44.324Z,12
2017-01-09T07:20:44.331Z,12
2017-01-09T07:21:44.335Z,12
2017-01-09T07:22:44.346Z,12
2017-01-09T07:23:44.357Z,12
2017-01-09T07:24:44.381Z,16
2017-01-09T07:25:44.408Z,16
2017-01-09T07:26:44.394Z,20
2017-01-09T07:27:44.399Z,16
2017-01-09T07:28:44.412Z,20
2017-01-09T07:29:44.426Z,20
2017-01-09T07:30:44.438Z,24
2017-01-09T07:31:44.447Z,20
2017-01-09T07:32:44.481Z,24
2017-01-09T07:33:44.463Z,24
2017-01-09T07:34:44.482Z,24
2017-01-09T07:35:44.485Z,24
2017-01-09T07:36:44.525Z,24
2017-01-09T07:37:44.533Z,24
2017-01-09T07:38:44.519Z,28
2017-01-09T07:39:44.529Z,32
2017-01-09T07:40:44.545Z,32
2017-01-09T07:41:44.549Z,32
2017-01-09T07:42:44.565Z,28
2017-01-09T07:43:44.571Z,28
2017-01-09T07:44:44.586Z,32
2017-01-09T07:45:44.593Z,32
2017-01-09T07:46:44.601Z,40
2017-01-09T07:47:44.617Z,44
2017-01-09T07:48:44.625Z,40
2017-01-09T07:49:44.642Z,44
2017-01-09T07:50:44.645Z,48
2017-01-09T07:51:44.658Z,40
2017-01-09T07:52:44.677Z,40
2017-01-09T07:53:44.685Z,44
2017-01-09T07:54:44.688Z,44
2017-01-09T07:55:44.706Z,56
2017-01-09T07:56:44.707Z,60
2017-01-09T07:57:44.719Z,60
2017-01-09T07:58:44.734Z,60
2017-01-09T07:59:44.741Z,60
2017-01-09T08:00:44.754Z,60
2017-01-09T08:01:44.760Z,60
2017-01-09T08:02:44.772Z,64
2017-01-09T08:03:44.840Z,68
2017-01-09T08:04:44.791Z,64
2017-01-09T08:05:44.809Z,56
2017-01-09T08:06:44.829Z,68
2017-01-09T08:07:44.850Z,76
2017-01-09T08:08:44.849Z,76
2017-01-09T08:09:44.852Z,84
2017-01-09T08:10:44.866Z,92
2017-01-09T08:11:44.876Z,96
2017-01-09T08:12:44.891Z,100
2017-01-09T08:13:44.893Z,96
2017-01-09T08:14:44.906Z,76
2017-01-09T08:15:44.916Z,76
2017-01-09T08:16:44.923Z,96
2017-01-09T08:17:44.940Z,104
2017-01-09T08:18:44.953Z,104
2017-01-09T08:19:44.965Z,104
2017-01-09T08:20:44.973Z,104
2017-01-09T08:21:44.982Z,92
2017-01-09T08:22:45.392Z,88
2017-01-09T08:23:45.009Z,84
2017-01-09T08:24:45.410Z,80
2017-01-09T08:25:45.024Z,88
2017-01-09T08:26:45.036Z,96
2017-01-09T08:27:45.044Z,96
2017-01-09T08:28:45.062Z,92
2017-01-09T08:29:45.066Z,100
2017-01-09T08:30:45.080Z,112
2017-01-09T08:31:45.093Z,120
2017-01-09T08:32:45.106Z,124
2017-01-09T08:33:45.113Z,116
2017-01-09T08:34:45.135Z,112
2017-01-09T08:35:45.133Z,128
2017-01-09T08:36:45.144Z,136
2017-01-09T08:37:45.155Z,144
2017-01-09T08:38:45.173Z,148
2017-01-09T08:39:45.175Z,156
2017-01-09T08:40:45.191Z,160
2017-01-09T08:41:45.221Z,160
2017-01-09T08:42:45.205Z,164
2017-01-09T08:43:45.224Z,168
2017-01-09T08:44:45.233Z,168
2017-01-09T08:45:45.254Z,184
2017-01-09T08:46:45.250Z,192
2017-01-09T08:47:45.259Z,192
2017-01-09T08:48:45.278Z,192
2017-01-09T08:49:45.285Z,192
2017-01-09T08:50:45.293Z,196
2017-01-09T08:51:45.308Z,196
2017-01-09T08:52:45.313Z,192
2017-01-09T08:53:45.331Z,184
2017-01-09T08:54:45.341Z,188
2017-01-09T08:55:45.345Z,204
2017-01-09T08:56:45.360Z,208
2017-01-09T08:57:45.373Z,212
2017-01-09T08:58:45.387Z,216
2017-01-09T08:59:45.392Z,224
2017-01-09T09:00:45.405Z,232
2017-01-09T09:01:45.414Z,240
2017-01-09T09:02:45.452Z,248
2017-01-09T09:03:45.444Z,252
2017-01-09T09:04:45.450Z,256
2017-01-09T09:05:45.455Z,264
2017-01-09T09:06:45.467Z,276
2017-01-09T09:07:45.474Z,284
2017-01-09T09:08:45.491Z,288
2017-01-09T09:09:45.503Z,304
2017-01-09T09:10:45.516Z,304
2017-01-09T09:11:45.518Z,320
2017-01-09T09:12:45.536Z,324
2017-01-09T09:13:45.546Z,344
2017-01-09T09:14:45.555Z,348
2017-01-09T09:15:45.565Z,356
2017-01-09T09:16:45.576Z,360
2017-01-09T09:17:45.588Z,364
2017-01-09T09:18:45.599Z,376
2017-01-09T09:19:45.609Z,380
2017-01-09T09:20:45.627Z,380
2017-01-09T09:21:45.633Z,376
2017-01-09T09:22:45.648Z,376
2017-01-09T09:23:45.655Z,376
2017-01-09T09:24:45.667Z,364
2017-01-09T09:25:45.676Z,352
2017-01-09T09:26:45.683Z,352
2017-01-09T09:27:45.695Z,356
2017-01-09T09:28:45.711Z,356
2017-01-09T09:29:45.737Z,360
2017-01-09T09:30:46.134Z,372
2017-01-09T09:31:45.747Z,384
2017-01-09T09:32:45.754Z,396
2017-01-09T09:33:45.776Z,396
2017-01-09T09:34:45.772Z,388
2017-01-09T09:35:45.788Z,396
2017-01-09T09:36:45.795Z,400
2017-01-09T09:37:45.804Z,404
2017-01-09T09:38:45.816Z,404
2017-01-09T09:39:45.833Z,416
2017-01-09T09:40:45.841Z,424
2017-01-09T09:41:45.854Z,432
2017-01-09T09:42:45.865Z,448
2017-01-09T09:43:45.873Z,452
2017-01-09T09:44:45.886Z,444
2017-01-09T09:45:45.888Z,436
2017-01-09T09:46:45.907Z,436
2017-01-09T09:47:45.917Z,436
2017-01-09T09:48:45.929Z,428
2017-01-09T09:49:45.955Z,424
2017-01-09T09:50:45.951Z,428
2017-01-09T09:51:45.965Z,440
2017-01-09T09:52:45.970Z,452
2017-01-09T09:53:45.979Z,456
2017-01-09T09:54:45.995Z,464
2017-01-09T09:55:46.004Z,480
2017-01-09T09:56:46.020Z,488
2017-01-09T09:57:46.032Z,464
2017-01-09T09:58:46.042Z,472
2017-01-09T09:59:46.051Z,500
2017-01-09T10:00:46.084Z,500
2017-01-09T10:01:46.070Z,504
2017-01-09T10:02:46.084Z,496
2017-01-09T10:03:46.093Z,488
2017-01-09T10:04:46.109Z,488
2017-01-09T10:05:46.115Z,492
2017-01-09T10:06:46.128Z,500
2017-01-09T10:07:46.136Z,516
2017-01-09T10:08:46.152Z,532
2017-01-09T10:09:46.161Z,548
2017-01-09T10:10:46.172Z,564
2017-01-09T10:11:46.184Z,556
2017-01-09T10:12:46.195Z,528
2017-01-09T10:13:46.203Z,512
2017-01-09T10:14:46.219Z,524
2017-01-09T10:15:46.229Z,528
2017-01-09T10:16:46.241Z,536
2017-01-09T10:17:46.247Z,552
2017-01-09T10:18:46.263Z,560
2017-01-09T10:19:46.273Z,556
2017-01-09T10:20:46.282Z,552
2017-01-09T10:21:46.292Z,556
2017-01-09T10:22:46.303Z,556
2017-01-09T10:23:46.313Z,568
2017-01-09T10:24:46.332Z,564
2017-01-09T10:25:46.344Z,572
2017-01-09T10:26:46.353Z,576
2017-01-09T10:27:46.358Z,580
2017-01-09T10:28:46.376Z,552
2017-01-09T10:29:46.380Z,536
2017-01-09T10:30:46.395Z,548
2017-01-09T10:31:46.400Z,552
2017-01-09T10:32:46.414Z,556
2017-01-09T10:33:46.425Z,532
2017-01-09T10:34:46.438Z,508
2017-01-09T10:35:46.449Z,496
2017-01-09T10:36:46.462Z,488
2017-01-09T10:37:46.474Z,484
2017-01-09T10:38:46.482Z,484
2017-01-09T10:39:46.491Z,488
2017-01-09T10:40:46.506Z,488
2017-01-09T10:41:46.518Z,484
2017-01-09T10:42:46.529Z,480
2017-01-09T10:43:46.538Z,496
2017-01-09T10:44:46.552Z,524
2017-01-09T10:45:46.559Z,532
2017-01-09T10:46:46.579Z,520
2017-01-09T10:47:46.587Z,532
2017-01-09T10:48:46.599Z,544
2017-01-09T10:49:46.603Z,552
2017-01-09T10:50:46.620Z,540
2017-01-09T10:51:46.626Z,524
2017-01-09T10:52:46.642Z,524
2017-01-09T10:53:46.651Z,532
2017-01-09T10:54:46.667Z,540
2017-01-09T10:55:46.671Z,536
2017-01-09T10:56:46.684Z,548
2017-01-09T10:57:46.700Z,568
2017-01-09T10:58:46.707Z,580
2017-01-09T10:59:46.716Z,584
2017-01-09T11:00:46.727Z,572
2017-01-09T11:01:46.743Z,564
2017-01-09T11:02:46.754Z,536
2017-01-09T11:03:46.763Z,520
2017-01-09T11:04:46.773Z,556
2017-01-09T11:05:46.791Z,596
2017-01-09T11:06:46.802Z,604
2017-01-09T11:07:46.820Z,604
2017-01-09T11:08:46.822Z,612
2017-01-09T11:09:46.840Z,616
2017-01-09T11:10:46.844Z,640
2017-01-09T11:11:46.855Z,652
2017-01-09T11:12:46.866Z,640
2017-01-09T11:13:47.277Z,624
2017-01-09T11:14:46.913Z,620
2017-01-09T11:15:46.904Z,640
2017-01-09T11:16:46.918Z,628
2017-01-09T11:17:46.923Z,664
2017-01-09T11:18:46.943Z,676
2017-01-09T11:19:46.944Z,652
2017-01-09T11:20:46.957Z,644
2017-01-09T11:21:46.969Z,636
2017-01-09T11:22:46.983Z,608
2017-01-09T11:23:46.991Z,588
2017-01-09T11:24:47.016Z,564
2017-01-09T11:25:47.015Z,532
2017-01-09T11:26:47.026Z,536
2017-01-09T11:27:47.032Z,564
2017-01-09T11:28:47.043Z,580
2017-01-09T11:29:47.063Z,596
2017-01-09T11:30:47.069Z,588
2017-01-09T11:31:47.078Z,584
2017-01-09T11:32:47.097Z,580
2017-01-09T11:33:47.104Z,572
2017-01-09T11:34:47.110Z,564
2017-01-09T11:35:47.119Z,572
2017-01-09T11:36:47.146Z,568
2017-01-09T11:37:47.147Z,556
2017-01-09T11:38:47.159Z,564
2017-01-09T11:39:47.169Z,580
2017-01-09T11:40:47.182Z,592
2017-01-09T11:41:47.190Z,600
2017-01-09T11:42:47.207Z,600
2017-01-09T11:43:47.223Z,608
2017-01-09T11:44:47.230Z,616
2017-01-09T11:45:47.240Z,620
2017-01-09T11:46:47.262Z,628
2017-01-09T11:47:47.266Z,628
2017-01-09T11:48:47.276Z,652
2017-01-09T11:49:47.295Z,652
2017-01-09T11:50:47.298Z,640
2017-01-09T11:51:47.314Z,620
2017-01-09T11:52:47.318Z,620
2017-01-09T11:53:47.337Z,608
2017-01-09T11:54:47.342Z,620
2017-01-09T11:55:47.356Z,648
2017-01-09T11:56:47.363Z,632
2017-01-09T11:57:47.376Z,624
2017-01-09T11:58:47.389Z,620
2017-01-09T11:59:47.393Z,628
2017-01-09T12:00:47.407Z,636
2017-01-09T12:01:47.416Z,632
2017-01-09T12:02:47.430Z,612
2017-01-09T12:03:47.438Z,592
2017-01-09T12:04:47.457Z,592
2017-01-09T12:05:47.466Z,592
2017-01-09T12:06:47.474Z,592
2017-01-09T12:07:47.486Z,584
2017-01-09T12:08:47.523Z,572
2017-01-09T12:09:47.509Z,572
2017-01-09T12:10:47.516Z,560
2017-01-09T12:11:47.529Z,568
2017-01-09T12:12:47.545Z,576
2017-01-09T12:13:47.556Z,576
2017-01-09T12:14:47.589Z,584
2017-01-09T12:15:47.573Z,576
2017-01-09T12:16:47.584Z,564
2017-01-09T12:17:47.595Z,568
2017-01-09T12:18:47.607Z,560
2017-01-09T12:19:47.620Z,568
2017-01-09T12:20:47.630Z,584
2017-01-09T12:21:47.650Z,580
2017-01-09T12:22:47.657Z,584
2017-01-09T12:23:47.664Z,580
2017-01-09T12:24:47.674Z,560
2017-01-09T12:25:47.694Z,548
2017-01-09T12:26:47.699Z,528
2017-01-09T12:27:47.714Z,524
2017-01-09T12:28:47.728Z,508
2017-01-09T12:29:47.732Z,516
2017-01-09T12:30:47.747Z,516
2017-01-09T12:31:47.758Z,508
2017-01-09T12:32:47.766Z,496
2017-01-09T12:33:47.776Z,480
2017-01-09T12:34:47.787Z,472
2017-01-09T12:35:47.801Z,476
2017-01-09T12:36:47.812Z,480
2017-01-09T12:37:47.824Z,484
2017-01-09T12:38:47.833Z,484
2017-01-09T12:39:47.847Z,484
2017-01-09T12:40:47.860Z,496
2017-01-09T12:41:47.881Z,512
2017-01-09T12:42:47.886Z,512
2017-01-09T12:43:47.894Z,496
2017-01-09T12:44:47.906Z,476
2017-01-09T12:45:47.911Z,484
2017-01-09T12:46:47.929Z,476
2017-01-09T12:47:47.935Z,472
2017-01-09T12:48:47.946Z,460
2017-01-09T12:49:47.970Z,448
2017-01-09T12:50:48.361Z,452
2017-01-09T12:51:47.985Z,452
2017-01-09T12:52:47.996Z,444
2017-01-09T12:53:48.007Z,456
2017-01-09T12:54:48.025Z,452
2017-01-09T12:55:48.031Z,444
2017-01-09T12:56:48.036Z,440
2017-01-09T12:57:48.050Z,440
2017-01-09T12:58:48.069Z,452
2017-01-09T12:59:48.076Z,452
2017-01-09T13:00:48.083Z,440
2017-01-09T13:01:48.094Z,444
2017-01-09T13:02:48.108Z,452
2017-01-09T13:03:48.122Z,456
2017-01-09T13:04:48.132Z,452
2017-01-09T13:05:48.145Z,424
2017-01-09T13:06:48.157Z,404
2017-01-09T13:07:48.165Z,388
2017-01-09T13:08:48.177Z,376
2017-01-09T13:09:48.182Z,376
2017-01-09T13:10:48.236Z,388
2017-01-09T13:11:48.214Z,384
2017-01-09T13:12:48.228Z,372
2017-01-09T13:13:48.233Z,380
2017-01-09T13:14:48.246Z,396
2017-01-09T13:15:48.255Z,404
2017-01-09T13:16:48.264Z,396
2017-01-09T13:17:48.275Z,376
2017-01-09T13:18:48.296Z,376
2017-01-09T13:19:48.707Z,356
2017-01-09T13:20:48.313Z,352
2017-01-09T13:21:48.324Z,348
2017-01-09T13:22:48.335Z,348
2017-01-09T13:23:48.349Z,344
2017-01-09T13:24:48.356Z,332
2017-01-09T13:25:48.372Z,324
2017-01-09T13:26:48.384Z,320
2017-01-09T13:27:48.392Z,328
2017-01-09T13:28:48.407Z,324
2017-01-09T13:29:48.417Z,328
2017-01-09T13:30:48.427Z,324
2017-01-09T13:31:48.458Z,328
2017-01-09T13:32:48.447Z,328
2017-01-09T13:33:48.465Z,324
2017-01-09T13:34:48.511Z,320
2017-01-09T13:35:48.484Z,316
2017-01-09T13:36:48.496Z,312
2017-01-09T13:37:48.502Z,308
2017-01-09T13:38:48.526Z,308
2017-01-09T13:39:48.526Z,304
2017-01-09T13:40:48.539Z,300
2017-01-09T13:41:48.553Z,288
2017-01-09T13:42:48.565Z,288
2017-01-09T13:43:48.579Z,288
2017-01-09T13:44:48.585Z,296
2017-01-09T13:45:48.603Z,288
2017-01-09T13:46:48.614Z,284
2017-01-09T13:47:48.617Z,280
2017-01-09T13:48:48.633Z,276
2017-01-09T13:49:48.643Z,268
2017-01-09T13:50:48.650Z,264
2017-01-09T13:51:48.666Z,264
2017-01-09T13:52:48.679Z,268
2017-01-09T13:53:48.690Z,256
2017-01-09T13:54:48.697Z,260
2017-01-09T13:55:48.711Z,252
2017-01-09T13:56:48.719Z,236
2017-01-09T13:57:48.729Z,228
2017-01-09T13:58:48.742Z,228
2017-01-09T13:59:48.753Z,224
2017-01-09T14:00:48.769Z,216
2017-01-09T14:01:48.775Z,204
2017-01-09T14:02:48.792Z,200
2017-01-09T14:03:48.803Z,200
2017-01-09T14:04:48.813Z,196
2017-01-09T14:05:48.847Z,196
2017-01-09T14:06:48.834Z,192
2017-01-09T14:07:48.847Z,192
2017-01-09T14:08:48.854Z,188
2017-01-09T14:09:48.872Z,184
2017-01-09T14:10:48.875Z,188
2017-01-09T14:11:48.897Z,184
2017-01-09T14:12:48.900Z,180
2017-01-09T14:13:48.910Z,172
2017-01-09T14:14:48.922Z,172
2017-01-09T14:15:48.932Z,164
2017-01-09T14:16:48.950Z,160
2017-01-09T14:17:48.966Z,156
2017-01-09T14:18:48.965Z,152